Time;durP1;ratioP1;P1;durP2;ratioP2;P2;SDS_P1;SDS_P2;PMS_P1;PMS_P2;Temp;Humidity;BMP_temperature;BMP_pressure;BME280_temperature;BME280_humidity;BME280_pressure;Samples;Min_cycle;Max_cycle;Signal;HPM_P1;HPM_P2
2021/02/11 00:00:45;;;;;;;23;12.55;;;;;;;-6.65;100;94979.72;;;;
2021/02/11 00:01:45;;;;;;;23;12.55;;;;;;;-6.65;100;94979.72;;;;
2021/02/11 00:02:46;;;;;;;26.9;15.35;;;;;;;-6.79;100;94995.42;;;;
2021/02/11 00:03:46;;;;;;;26.9;15.35;;;;;;;-6.79;100;94995.42;;;;
2021/02/11 00:04:47;;;;;;;26.9;15.35;;;;;;;-6.79;100;94995.42;;;;
2021/02/11 00:05:47;;;;;;;26.9;15.35;;;;;;;-6.79;100;94995.42;;;;
2021/02/11 00:06:48;;;;;;;26.9;15.35;;;;;;;-6.79;100;94995.42;;;;
2021/02/11 00:07:49;;;;;;;26.9;15.35;;;;;;;-6.79;100;94995.42;;;;
2021/02/11 00:08:49;;;;;;;26.9;15.35;;;;;;;-6.79;100;94995.42;;;;
2021/02/11 00:09:50;;;;;;;26.9;15.35;;;;;;;-6.79;100;94995.42;;;;
2021/02/11 00:10:50;;;;;;;26.9;15.35;;;;;;;-6.79;100;94995.42;;;;
2021/02/11 00:11:51;;;;;;;26.9;15.35;;;;;;;-6.79;100;94995.42;;;;
2021/02/11 00:12:52;;;;;;;25.9;15.4;;;;;;;-6.89;100;95012.97;;;;
2021/02/11 00:13:53;;;;;;;25.9;15.4;;;;;;;-6.89;100;95012.97;;;;
2021/02/11 00:14:53;;;;;;;25.9;15.4;;;;;;;-6.89;100;95012.97;;;;
2021/02/11 00:15:54;;;;;;;25.9;15.4;;;;;;;-6.89;100;95012.97;;;;
2021/02/11 00:16:54;;;;;;;25.9;15.4;;;;;;;-6.89;100;95012.97;;;;
2021/02/11 00:17:55;;;;;;;25.9;15.4;;;;;;;-6.89;100;95012.97;;;;
2021/02/11 00:18:55;;;;;;;25.9;15.4;;;;;;;-6.89;100;95012.97;;;;
2021/02/11 00:19:56;;;;;;;25.9;15.4;;;;;;;-6.89;100;95012.97;;;;
2021/02/11 00:20:56;;;;;;;25.9;15.4;;;;;;;-6.89;100;95012.97;;;;
2021/02/11 00:21:56;;;;;;;25.9;15.4;;;;;;;-6.89;100;95012.97;;;;
2021/02/11 00:22:57;;;;;;;25.9;15.4;;;;;;;-6.89;100;95012.97;;;;
2021/02/11 00:23:58;;;;;;;24.15;11.4;;;;;;;-6.93;100;95030.42;;;;
2021/02/11 00:24:58;;;;;;;24.15;11.4;;;;;;;-6.93;100;95030.42;;;;
2021/02/11 00:25:59;;;;;;;24.15;11.4;;;;;;;-6.93;100;95030.42;;;;
2021/02/11 00:26:59;;;;;;;24.15;11.4;;;;;;;-6.93;100;95030.42;;;;
2021/02/11 00:28:00;;;;;;;24.15;11.4;;;;;;;-6.93;100;95030.42;;;;
2021/02/11 00:29:00;;;;;;;24.15;11.4;;;;;;;-6.93;100;95030.42;;;;
2021/02/11 00:30:01;;;;;;;24.15;11.4;;;;;;;-6.93;100;95030.42;;;;
2021/02/11 00:31:04;;;;;;;24.15;11.4;;;;;;;-6.93;100;95030.42;;;;
2021/02/11 00:32:04;;;;;;;24.15;11.4;;;;;;;-6.93;100;95030.42;;;;
2021/02/11 00:33:06;;;;;;;24.15;11.4;;;;;;;-6.93;100;95030.42;;;;
2021/02/11 00:34:07;;;;;;;24.15;11.4;;;;;;;-6.93;100;95030.42;;;;
2021/02/11 00:35:08;;;;;;;25.55;14.6;;;;;;;-6.95;100;95056.37;;;;
2021/02/11 00:36:12;;;;;;;25.55;14.6;;;;;;;-6.95;100;95056.37;;;;
2021/02/11 00:37:12;;;;;;;25.55;14.6;;;;;;;-6.95;100;95056.37;;;;
2021/02/11 00:38:13;;;;;;;25.55;14.6;;;;;;;-6.95;100;95056.37;;;;
2021/02/11 00:39:13;;;;;;;25.55;14.6;;;;;;;-6.95;100;95056.37;;;;
2021/02/11 00:40:17;;;;;;;25.55;14.6;;;;;;;-6.95;100;95056.37;;;;
2021/02/11 00:41:17;;;;;;;25.55;14.6;;;;;;;-6.95;100;95056.37;;;;
2021/02/11 00:42:18;;;;;;;25.55;14.6;;;;;;;-6.95;100;95056.37;;;;
2021/02/11 00:43:19;;;;;;;25.55;14.6;;;;;;;-6.95;100;95056.37;;;;
2021/02/11 00:44:19;;;;;;;25.55;14.6;;;;;;;-6.95;100;95056.37;;;;
2021/02/11 00:45:20;;;;;;;23.35;14.9;;;;;;;-6.99;100;95074.61;;;;
2021/02/11 00:46:24;;;;;;;23.35;14.9;;;;;;;-6.99;100;95074.61;;;;
2021/02/11 00:47:25;;;;;;;23.35;14.9;;;;;;;-6.99;100;95074.61;;;;
2021/02/11 00:48:25;;;;;;;23.35;14.9;;;;;;;-6.99;100;95074.61;;;;
2021/02/11 00:49:26;;;;;;;23.35;14.9;;;;;;;-6.99;100;95074.61;;;;
2021/02/11 00:50:27;;;;;;;23.35;14.9;;;;;;;-6.99;100;95074.61;;;;
2021/02/11 00:51:27;;;;;;;23.35;14.9;;;;;;;-6.99;100;95074.61;;;;
2021/02/11 00:52:28;;;;;;;23.35;14.9;;;;;;;-6.99;100;95074.61;;;;
2021/02/11 00:53:28;;;;;;;23.35;14.9;;;;;;;-6.99;100;95074.61;;;;
2021/02/11 00:54:29;;;;;;;23.35;14.9;;;;;;;-6.99;100;95074.61;;;;
2021/02/11 00:55:29;;;;;;;23.35;14.9;;;;;;;-6.99;100;95074.61;;;;
2021/02/11 00:56:30;;;;;;;22;14.2;;;;;;;-7.05;100;95097.02;;;;
2021/02/11 00:57:31;;;;;;;22;14.2;;;;;;;-7.05;100;95097.02;;;;
2021/02/11 00:58:31;;;;;;;22;14.2;;;;;;;-7.05;100;95097.02;;;;
2021/02/11 00:59:32;;;;;;;22;14.2;;;;;;;-7.05;100;95097.02;;;;
2021/02/11 01:00:32;;;;;;;22;14.2;;;;;;;-7.05;100;95097.02;;;;
2021/02/11 01:01:33;;;;;;;22;14.2;;;;;;;-7.05;100;95097.02;;;;
2021/02/11 01:02:34;;;;;;;22;14.2;;;;;;;-7.05;100;95097.02;;;;
2021/02/11 01:03:34;;;;;;;22;14.2;;;;;;;-7.05;100;95097.02;;;;
2021/02/11 01:04:35;;;;;;;22;14.2;;;;;;;-7.05;100;95097.02;;;;
2021/02/11 01:05:36;;;;;;;22;14.2;;;;;;;-7.05;100;95097.02;;;;
2021/02/11 01:06:36;;;;;;;22.5;14.15;;;;;;;-7.09;100;95131.06;;;;
2021/02/11 01:07:36;;;;;;;22.5;14.15;;;;;;;-7.09;100;95131.06;;;;
2021/02/11 01:08:37;;;;;;;22.5;14.15;;;;;;;-7.09;100;95131.06;;;;
2021/02/11 01:09:38;;;;;;;22.5;14.15;;;;;;;-7.09;100;95131.06;;;;
2021/02/11 01:10:38;;;;;;;22.5;14.15;;;;;;;-7.09;100;95131.06;;;;
2021/02/11 01:11:39;;;;;;;22.5;14.15;;;;;;;-7.09;100;95131.06;;;;
2021/02/11 01:12:39;;;;;;;22.5;14.15;;;;;;;-7.09;100;95131.06;;;;
2021/02/11 01:13:40;;;;;;;22.5;14.15;;;;;;;-7.09;100;95131.06;;;;
2021/02/11 01:14:41;;;;;;;22.5;14.15;;;;;;;-7.09;100;95131.06;;;;
2021/02/11 01:15:41;;;;;;;22.5;14.15;;;;;;;-7.09;100;95131.06;;;;
2021/02/11 01:16:42;;;;;;;22.5;14.15;;;;;;;-7.09;100;95131.06;;;;
2021/02/11 01:17:43;;;;;;;22;13.45;;;;;;;-7.15;100;95146.48;;;;
2021/02/11 01:18:44;;;;;;;22;13.45;;;;;;;-7.15;100;95146.48;;;;
2021/02/11 01:19:44;;;;;;;22;13.45;;;;;;;-7.15;100;95146.48;;;;
2021/02/11 01:20:46;;;;;;;22;13.45;;;;;;;-7.15;100;95146.48;;;;
2021/02/11 01:21:46;;;;;;;22;13.45;;;;;;;-7.15;100;95146.48;;;;
2021/02/11 01:22:47;;;;;;;22;13.45;;;;;;;-7.15;100;95146.48;;;;
2021/02/11 01:23:47;;;;;;;22;13.45;;;;;;;-7.15;100;95146.48;;;;
2021/02/11 01:24:48;;;;;;;22;13.45;;;;;;;-7.15;100;95146.48;;;;
2021/02/11 01:25:48;;;;;;;22;13.45;;;;;;;-7.15;100;95146.48;;;;
2021/02/11 01:26:49;;;;;;;22;13.45;;;;;;;-7.15;100;95146.48;;;;
2021/02/11 01:27:49;;;;;;;20.2;12.85;;;;;;;-7.21;100;95168.4;;;;
2021/02/11 01:28:51;;;;;;;20.2;12.85;;;;;;;-7.21;100;95168.4;;;;
2021/02/11 01:29:51;;;;;;;20.2;12.85;;;;;;;-7.21;100;95168.4;;;;
2021/02/11 01:30:56;;;;;;;20.2;12.85;;;;;;;-7.21;100;95168.4;;;;
2021/02/11 01:31:56;;;;;;;20.2;12.85;;;;;;;-7.21;100;95168.4;;;;
2021/02/11 01:32:57;;;;;;;20.2;12.85;;;;;;;-7.21;100;95168.4;;;;
2021/02/11 01:33:57;;;;;;;20.2;12.85;;;;;;;-7.21;100;95168.4;;;;
2021/02/11 01:34:58;;;;;;;20.2;12.85;;;;;;;-7.21;100;95168.4;;;;
2021/02/11 01:35:58;;;;;;;20.2;12.85;;;;;;;-7.21;100;95168.4;;;;
2021/02/11 01:36:58;;;;;;;20.2;12.85;;;;;;;-7.21;100;95168.4;;;;
2021/02/11 01:37:59;;;;;;;20.2;12.85;;;;;;;-7.21;100;95168.4;;;;
2021/02/11 01:38:59;;;;;;;20.1;12.95;;;;;;;-7.23;100;95178.22;;;;
2021/02/11 01:40:00;;;;;;;20.1;12.95;;;;;;;-7.23;100;95178.22;;;;
2021/02/11 01:41:01;;;;;;;20.1;12.95;;;;;;;-7.23;100;95178.22;;;;
2021/02/11 01:42:05;;;;;;;20.1;12.95;;;;;;;-7.23;100;95178.22;;;;
2021/02/11 01:43:06;;;;;;;20.1;12.95;;;;;;;-7.23;100;95178.22;;;;
2021/02/11 01:44:06;;;;;;;20.1;12.95;;;;;;;-7.23;100;95178.22;;;;
2021/02/11 01:45:07;;;;;;;20.1;12.95;;;;;;;-7.23;100;95178.22;;;;
2021/02/11 01:46:10;;;;;;;20.1;12.95;;;;;;;-7.23;100;95178.22;;;;
2021/02/11 01:47:11;;;;;;;20.1;12.95;;;;;;;-7.23;100;95178.22;;;;
2021/02/11 01:48:11;;;;;;;20.1;12.95;;;;;;;-7.23;100;95178.22;;;;
2021/02/11 01:49:12;;;;;;;22.6;12.35;;;;;;;-7.32;100;95192.5;;;;
2021/02/11 01:50:13;;;;;;;22.6;12.35;;;;;;;-7.32;100;95192.5;;;;
2021/02/11 01:51:14;;;;;;;22.6;12.35;;;;;;;-7.32;100;95192.5;;;;
2021/02/11 01:52:15;;;;;;;22.6;12.35;;;;;;;-7.32;100;95192.5;;;;
2021/02/11 01:53:15;;;;;;;22.6;12.35;;;;;;;-7.32;100;95192.5;;;;
2021/02/11 01:54:16;;;;;;;22.6;12.35;;;;;;;-7.32;100;95192.5;;;;
2021/02/11 01:55:17;;;;;;;22.6;12.35;;;;;;;-7.32;100;95192.5;;;;
2021/02/11 01:56:17;;;;;;;22.6;12.35;;;;;;;-7.32;100;95192.5;;;;
2021/02/11 01:57:18;;;;;;;22.6;12.35;;;;;;;-7.32;100;95192.5;;;;
2021/02/11 01:58:18;;;;;;;22.6;12.35;;;;;;;-7.32;100;95192.5;;;;
2021/02/11 01:59:18;;;;;;;22.6;12.35;;;;;;;-7.32;100;95192.5;;;;
2021/02/11 02:00:19;;;;;;;18.3;12;;;;;;;-7.39;100;95226.76;;;;
2021/02/11 02:01:20;;;;;;;18.3;12;;;;;;;-7.39;100;95226.76;;;;
2021/02/11 02:02:20;;;;;;;18.3;12;;;;;;;-7.39;100;95226.76;;;;
2021/02/11 02:03:21;;;;;;;18.3;12;;;;;;;-7.39;100;95226.76;;;;
2021/02/11 02:04:21;;;;;;;18.3;12;;;;;;;-7.39;100;95226.76;;;;
2021/02/11 02:05:22;;;;;;;18.3;12;;;;;;;-7.39;100;95226.76;;;;
2021/02/11 02:06:22;;;;;;;18.3;12;;;;;;;-7.39;100;95226.76;;;;
2021/02/11 02:07:23;;;;;;;18.3;12;;;;;;;-7.39;100;95226.76;;;;
2021/02/11 02:08:24;;;;;;;18.3;12;;;;;;;-7.39;100;95226.76;;;;
2021/02/11 02:09:24;;;;;;;18.3;12;;;;;;;-7.39;100;95226.76;;;;
2021/02/11 02:10:25;;;;;;;17.3;11.2;;;;;;;-7.46;100;95243.97;;;;
2021/02/11 02:11:25;;;;;;;17.3;11.2;;;;;;;-7.46;100;95243.97;;;;
2021/02/11 02:12:26;;;;;;;17.3;11.2;;;;;;;-7.46;100;95243.97;;;;
2021/02/11 02:13:27;;;;;;;17.3;11.2;;;;;;;-7.46;100;95243.97;;;;
2021/02/11 02:14:27;;;;;;;17.3;11.2;;;;;;;-7.46;100;95243.97;;;;
2021/02/11 02:15:28;;;;;;;17.3;11.2;;;;;;;-7.46;100;95243.97;;;;
2021/02/11 02:16:28;;;;;;;17.3;11.2;;;;;;;-7.46;100;95243.97;;;;
2021/02/11 02:17:29;;;;;;;17.3;11.2;;;;;;;-7.46;100;95243.97;;;;
2021/02/11 02:18:30;;;;;;;17.3;11.2;;;;;;;-7.46;100;95243.97;;;;
2021/02/11 02:19:31;;;;;;;17.3;11.2;;;;;;;-7.46;100;95243.97;;;;
2021/02/11 02:20:32;;;;;;;17.3;11.2;;;;;;;-7.46;100;95243.97;;;;
2021/02/11 02:21:32;;;;;;;16.65;10.5;;;;;;;-7.56;100;95260.97;;;;
2021/02/11 02:22:33;;;;;;;16.65;10.5;;;;;;;-7.56;100;95260.97;;;;
2021/02/11 02:23:34;;;;;;;16.65;10.5;;;;;;;-7.56;100;95260.97;;;;
2021/02/11 02:24:34;;;;;;;16.65;10.5;;;;;;;-7.56;100;95260.97;;;;
2021/02/11 02:25:34;;;;;;;16.65;10.5;;;;;;;-7.56;100;95260.97;;;;
2021/02/11 02:26:35;;;;;;;16.65;10.5;;;;;;;-7.56;100;95260.97;;;;
2021/02/11 02:27:38;;;;;;;16.65;10.5;;;;;;;-7.56;100;95260.97;;;;
2021/02/11 02:28:38;;;;;;;16.65;10.5;;;;;;;-7.56;100;95260.97;;;;
2021/02/11 02:29:39;;;;;;;16.65;10.5;;;;;;;-7.56;100;95260.97;;;;
2021/02/11 02:30:40;;;;;;;16.65;10.5;;;;;;;-7.56;100;95260.97;;;;
2021/02/11 02:31:41;;;;;;;16.65;10.5;;;;;;;-7.56;100;95260.97;;;;
2021/02/11 02:32:41;;;;;;;15.8;10.75;;;;;;;-7.66;100;95274.55;;;;
2021/02/11 02:33:47;;;;;;;15.8;10.75;;;;;;;-7.66;100;95274.55;;;;
2021/02/11 02:34:54;;;;;;;15.8;10.75;;;;;;;-7.66;100;95274.55;;;;
2021/02/11 02:36:02;;;;;;;15.8;10.75;;;;;;;-7.66;100;95274.55;;;;
2021/02/11 02:37:09;;;;;;;15.8;10.75;;;;;;;-7.66;100;95274.55;;;;
2021/02/11 02:38:13;;;;;;;15.8;10.75;;;;;;;-7.66;100;95274.55;;;;
2021/02/11 02:39:19;;;;;;;15.8;10.75;;;;;;;-7.66;100;95274.55;;;;
2021/02/11 02:40:26;;;;;;;15.8;10.75;;;;;;;-7.66;100;95274.55;;;;
2021/02/11 02:41:31;;;;;;;15.8;10.75;;;;;;;-7.66;100;95274.55;;;;
2021/02/11 02:42:36;;;;;;;15.8;10.3;;;;;;;-7.81;100;95284.92;;;;
2021/02/11 02:43:42;;;;;;;15.8;10.3;;;;;;;-7.81;100;95284.92;;;;
2021/02/11 02:44:49;;;;;;;15.8;10.3;;;;;;;-7.81;100;95284.92;;;;
2021/02/11 02:45:55;;;;;;;15.8;10.3;;;;;;;-7.81;100;95284.92;;;;
2021/02/11 02:47:01;;;;;;;15.8;10.3;;;;;;;-7.81;100;95284.92;;;;
2021/02/11 02:48:03;;;;;;;15.8;10.3;;;;;;;-7.81;100;95284.92;;;;
2021/02/11 02:49:08;;;;;;;15.8;10.3;;;;;;;-7.81;100;95284.92;;;;
2021/02/11 02:50:11;;;;;;;15.8;10.3;;;;;;;-7.81;100;95284.92;;;;
2021/02/11 02:51:17;;;;;;;15.8;10.3;;;;;;;-7.81;100;95284.92;;;;
2021/02/11 02:52:20;;;;;;;15.8;10.3;;;;;;;-7.81;100;95284.92;;;;
2021/02/11 02:53:22;;;;;;;17.2;10.65;;;;;;;-7.86;100;95301.47;;;;
2021/02/11 02:54:25;;;;;;;17.2;10.65;;;;;;;-7.86;100;95301.47;;;;
2021/02/11 02:55:28;;;;;;;17.2;10.65;;;;;;;-7.86;100;95301.47;;;;
2021/02/11 02:56:31;;;;;;;17.2;10.65;;;;;;;-7.86;100;95301.47;;;;
2021/02/11 02:57:32;;;;;;;17.2;10.65;;;;;;;-7.86;100;95301.47;;;;
2021/02/11 02:58:34;;;;;;;17.2;10.65;;;;;;;-7.86;100;95301.47;;;;
2021/02/11 02:59:36;;;;;;;17.2;10.65;;;;;;;-7.86;100;95301.47;;;;
2021/02/11 03:00:39;;;;;;;17.2;10.65;;;;;;;-7.86;100;95301.47;;;;
2021/02/11 03:01:41;;;;;;;17.2;10.65;;;;;;;-7.86;100;95301.47;;;;
2021/02/11 03:02:43;;;;;;;17.2;10.65;;;;;;;-7.86;100;95301.47;;;;
2021/02/11 03:03:46;;;;;;;20.35;12;;;;;;;-7.95;100;95328.91;;;;
2021/02/11 03:04:52;;;;;;;20.35;12;;;;;;;-7.95;100;95328.91;;;;
2021/02/11 03:05:56;;;;;;;20.35;12;;;;;;;-7.95;100;95328.91;;;;
2021/02/11 03:06:59;;;;;;;20.35;12;;;;;;;-7.95;100;95328.91;;;;
2021/02/11 03:08:00;;;;;;;20.35;12;;;;;;;-7.95;100;95328.91;;;;
2021/02/11 03:09:02;;;;;;;20.35;12;;;;;;;-7.95;100;95328.91;;;;
2021/02/11 03:10:06;;;;;;;20.35;12;;;;;;;-7.95;100;95328.91;;;;
2021/02/11 03:11:09;;;;;;;20.35;12;;;;;;;-7.95;100;95328.91;;;;
2021/02/11 03:12:10;;;;;;;20.35;12;;;;;;;-7.95;100;95328.91;;;;
2021/02/11 03:13:12;;;;;;;20.35;12;;;;;;;-7.95;100;95328.91;;;;
2021/02/11 03:14:13;;;;;;;20.35;12;;;;;;;-7.95;100;95328.91;;;;
2021/02/11 03:15:14;;;;;;;16.2;10.6;;;;;;;-8.03;100;95342.19;;;;
2021/02/11 03:16:18;;;;;;;16.2;10.6;;;;;;;-8.03;100;95342.19;;;;
2021/02/11 03:17:19;;;;;;;16.2;10.6;;;;;;;-8.03;100;95342.19;;;;
2021/02/11 03:18:20;;;;;;;16.2;10.6;;;;;;;-8.03;100;95342.19;;;;
2021/02/11 03:19:21;;;;;;;16.2;10.6;;;;;;;-8.03;100;95342.19;;;;
2021/02/11 03:20:24;;;;;;;16.2;10.6;;;;;;;-8.03;100;95342.19;;;;
2021/02/11 03:21:25;;;;;;;16.2;10.6;;;;;;;-8.03;100;95342.19;;;;
2021/02/11 03:22:26;;;;;;;16.2;10.6;;;;;;;-8.03;100;95342.19;;;;
2021/02/11 03:23:28;;;;;;;16.2;10.6;;;;;;;-8.03;100;95342.19;;;;
2021/02/11 03:24:28;;;;;;;16.2;10.6;;;;;;;-8.03;100;95342.19;;;;
2021/02/11 03:25:29;;;;;;;18.8;11.6;;;;;;;-8.08;100;95359.56;;;;
2021/02/11 03:26:30;;;;;;;18.8;11.6;;;;;;;-8.08;100;95359.56;;;;
2021/02/11 03:27:37;;;;;;;18.8;11.6;;;;;;;-8.08;100;95359.56;;;;
2021/02/11 03:28:39;;;;;;;18.8;11.6;;;;;;;-8.08;100;95359.56;;;;
2021/02/11 03:29:42;;;;;;;18.8;11.6;;;;;;;-8.08;100;95359.56;;;;
2021/02/11 03:30:43;;;;;;;18.8;11.6;;;;;;;-8.08;100;95359.56;;;;
2021/02/11 03:31:45;;;;;;;18.8;11.6;;;;;;;-8.08;100;95359.56;;;;
2021/02/11 03:32:49;;;;;;;18.8;11.6;;;;;;;-8.08;100;95359.56;;;;
2021/02/11 03:33:52;;;;;;;18.8;11.6;;;;;;;-8.08;100;95359.56;;;;
2021/02/11 03:34:53;;;;;;;18.8;11.6;;;;;;;-8.08;100;95359.56;;;;
2021/02/11 03:35:56;;;;;;;17.95;10.95;;;;;;;-8.1;100;95380.3;;;;
2021/02/11 03:36:58;;;;;;;17.95;10.95;;;;;;;-8.1;100;95380.3;;;;
2021/02/11 03:38:00;;;;;;;17.95;10.95;;;;;;;-8.1;100;95380.3;;;;
2021/02/11 03:39:05;;;;;;;17.95;10.95;;;;;;;-8.1;100;95380.3;;;;
2021/02/11 03:40:08;;;;;;;17.95;10.95;;;;;;;-8.1;100;95380.3;;;;
2021/02/11 03:41:10;;;;;;;17.95;10.95;;;;;;;-8.1;100;95380.3;;;;
2021/02/11 03:42:15;;;;;;;17.95;10.95;;;;;;;-8.1;100;95380.3;;;;
2021/02/11 03:43:17;;;;;;;17.95;10.95;;;;;;;-8.1;100;95380.3;;;;
2021/02/11 03:44:19;;;;;;;17.95;10.95;;;;;;;-8.1;100;95380.3;;;;
2021/02/11 03:45:20;;;;;;;17.95;10.95;;;;;;;-8.1;100;95380.3;;;;
2021/02/11 03:46:22;;;;;;;17.95;10.95;;;;;;;-8.1;100;95380.3;;;;
2021/02/11 03:47:24;;;;;;;17.55;11.55;;;;;;;-8.15;100;95401.2;;;;
2021/02/11 03:48:26;;;;;;;17.55;11.55;;;;;;;-8.15;100;95401.2;;;;
2021/02/11 03:49:28;;;;;;;17.55;11.55;;;;;;;-8.15;100;95401.2;;;;
2021/02/11 03:50:29;;;;;;;17.55;11.55;;;;;;;-8.15;100;95401.2;;;;
2021/02/11 03:51:31;;;;;;;17.55;11.55;;;;;;;-8.15;100;95401.2;;;;
2021/02/11 03:52:33;;;;;;;17.55;11.55;;;;;;;-8.15;100;95401.2;;;;
2021/02/11 03:53:36;;;;;;;17.55;11.55;;;;;;;-8.15;100;95401.2;;;;
2021/02/11 03:54:37;;;;;;;17.55;11.55;;;;;;;-8.15;100;95401.2;;;;
2021/02/11 03:55:40;;;;;;;17.55;11.55;;;;;;;-8.15;100;95401.2;;;;
2021/02/11 03:56:42;;;;;;;17.55;11.55;;;;;;;-8.15;100;95401.2;;;;
2021/02/11 03:57:43;;;;;;;17.65;11.25;;;;;;;-8.27;100;95427.55;;;;
2021/02/11 03:58:46;;;;;;;17.65;11.25;;;;;;;-8.27;100;95427.55;;;;
2021/02/11 03:59:49;;;;;;;17.65;11.25;;;;;;;-8.27;100;95427.55;;;;
2021/02/11 04:00:51;;;;;;;17.65;11.25;;;;;;;-8.27;100;95427.55;;;;
2021/02/11 04:01:51;;;;;;;17.65;11.25;;;;;;;-8.27;100;95427.55;;;;
2021/02/11 04:02:52;;;;;;;17.65;11.25;;;;;;;-8.27;100;95427.55;;;;
2021/02/11 04:03:54;;;;;;;17.65;11.25;;;;;;;-8.27;100;95427.55;;;;
2021/02/11 04:04:55;;;;;;;17.65;11.25;;;;;;;-8.27;100;95427.55;;;;
2021/02/11 04:05:56;;;;;;;17.65;11.25;;;;;;;-8.27;100;95427.55;;;;
2021/02/11 04:06:57;;;;;;;17.65;11.25;;;;;;;-8.27;100;95427.55;;;;
2021/02/11 04:07:58;;;;;;;19.6;12.7;;;;;;;-8.36;100;95466.14;;;;
2021/02/11 04:08:59;;;;;;;19.6;12.7;;;;;;;-8.36;100;95466.14;;;;
2021/02/11 04:10:00;;;;;;;19.6;12.7;;;;;;;-8.36;100;95466.14;;;;
2021/02/11 04:11:01;;;;;;;19.6;12.7;;;;;;;-8.36;100;95466.14;;;;
2021/02/11 04:12:03;;;;;;;19.6;12.7;;;;;;;-8.36;100;95466.14;;;;
2021/02/11 04:13:05;;;;;;;19.6;12.7;;;;;;;-8.36;100;95466.14;;;;
2021/02/11 04:14:06;;;;;;;19.6;12.7;;;;;;;-8.36;100;95466.14;;;;
2021/02/11 04:15:08;;;;;;;19.6;12.7;;;;;;;-8.36;100;95466.14;;;;
2021/02/11 04:16:10;;;;;;;19.6;12.7;;;;;;;-8.36;100;95466.14;;;;
2021/02/11 04:17:12;;;;;;;19.6;12.7;;;;;;;-8.36;100;95466.14;;;;
2021/02/11 04:18:13;;;;;;;19.6;12.7;;;;;;;-8.36;100;95466.14;;;;
2021/02/11 04:19:14;;;;;;;21.1;13.45;;;;;;;-8.4;100;95477.37;;;;
2021/02/11 04:20:15;;;;;;;21.1;13.45;;;;;;;-8.4;100;95477.37;;;;
2021/02/11 04:21:18;;;;;;;21.1;13.45;;;;;;;-8.4;100;95477.37;;;;
2021/02/11 04:22:20;;;;;;;21.1;13.45;;;;;;;-8.4;100;95477.37;;;;
2021/02/11 04:23:21;;;;;;;21.1;13.45;;;;;;;-8.4;100;95477.37;;;;
2021/02/11 04:24:22;;;;;;;21.1;13.45;;;;;;;-8.4;100;95477.37;;;;
2021/02/11 04:25:23;;;;;;;21.1;13.45;;;;;;;-8.4;100;95477.37;;;;
2021/02/11 04:26:26;;;;;;;21.1;13.45;;;;;;;-8.4;100;95477.37;;;;
2021/02/11 04:27:26;;;;;;;21.1;13.45;;;;;;;-8.4;100;95477.37;;;;
2021/02/11 04:28:27;;;;;;;21.1;13.45;;;;;;;-8.4;100;95477.37;;;;
2021/02/11 04:29:32;;;;;;;18.85;12.7;;;;;;;-8.48;100;95491.11;;;;
2021/02/11 04:30:33;;;;;;;18.85;12.7;;;;;;;-8.48;100;95491.11;;;;
2021/02/11 04:31:33;;;;;;;18.85;12.7;;;;;;;-8.48;100;95491.11;;;;
2021/02/11 04:32:34;;;;;;;18.85;12.7;;;;;;;-8.48;100;95491.11;;;;
2021/02/11 04:33:34;;;;;;;18.85;12.7;;;;;;;-8.48;100;95491.11;;;;
2021/02/11 04:34:35;;;;;;;18.85;12.7;;;;;;;-8.48;100;95491.11;;;;
2021/02/11 04:35:36;;;;;;;18.85;12.7;;;;;;;-8.48;100;95491.11;;;;
2021/02/11 04:36:37;;;;;;;18.85;12.7;;;;;;;-8.48;100;95491.11;;;;
2021/02/11 04:37:38;;;;;;;18.85;12.7;;;;;;;-8.48;100;95491.11;;;;
2021/02/11 04:38:39;;;;;;;18.85;12.7;;;;;;;-8.48;100;95491.11;;;;
2021/02/11 04:39:40;;;;;;;18.85;12.7;;;;;;;-8.48;100;95491.11;;;;
2021/02/11 04:40:40;;;;;;;21;13.6;;;;;;;-8.57;100;95518.41;;;;
2021/02/11 04:41:42;;;;;;;21;13.6;;;;;;;-8.57;100;95518.41;;;;
2021/02/11 04:42:43;;;;;;;21;13.6;;;;;;;-8.57;100;95518.41;;;;
2021/02/11 04:43:53;;;;;;;21;13.6;;;;;;;-8.57;100;95518.41;;;;
2021/02/11 04:45:02;;;;;;;21;13.6;;;;;;;-8.57;100;95518.41;;;;
2021/02/11 04:46:05;;;;;;;21;13.6;;;;;;;-8.57;100;95518.41;;;;
2021/02/11 04:47:16;;;;;;;21;13.6;;;;;;;-8.57;100;95518.41;;;;
2021/02/11 04:48:29;;;;;;;21;13.6;;;;;;;-8.57;100;95518.41;;;;
2021/02/11 04:49:33;;;;;;;21;13.6;;;;;;;-8.57;100;95518.41;;;;
2021/02/11 04:50:42;;;;;;;18.85;12.7;;;;;;;-8.64;100;95520.7;;;;
2021/02/11 04:51:47;;;;;;;18.85;12.7;;;;;;;-8.64;100;95520.7;;;;
2021/02/11 04:52:48;;;;;;;18.85;12.7;;;;;;;-8.64;100;95520.7;;;;
2021/02/11 04:54:04;;;;;;;18.85;12.7;;;;;;;-8.64;100;95520.7;;;;
2021/02/11 04:55:11;;;;;;;18.85;12.7;;;;;;;-8.64;100;95520.7;;;;
2021/02/11 04:56:15;;;;;;;18.85;12.7;;;;;;;-8.64;100;95520.7;;;;
2021/02/11 04:57:21;;;;;;;18.85;12.7;;;;;;;-8.64;100;95520.7;;;;
2021/02/11 04:58:23;;;;;;;18.85;12.7;;;;;;;-8.64;100;95520.7;;;;
2021/02/11 04:59:27;;;;;;;18.85;12.7;;;;;;;-8.64;100;95520.7;;;;
2021/02/11 05:00:29;;;;;;;18.85;12.7;;;;;;;-8.64;100;95520.7;;;;
2021/02/11 05:01:32;;;;;;;19.25;12.7;;;;;;;-8.7;100;95546;;;;
2021/02/11 05:02:39;;;;;;;19.25;12.7;;;;;;;-8.7;100;95546;;;;
2021/02/11 05:03:47;;;;;;;19.25;12.7;;;;;;;-8.7;100;95546;;;;
2021/02/11 05:04:55;;;;;;;19.25;12.7;;;;;;;-8.7;100;95546;;;;
2021/02/11 05:06:03;;;;;;;19.25;12.7;;;;;;;-8.7;100;95546;;;;
2021/02/11 05:07:15;;;;;;;19.25;12.7;;;;;;;-8.7;100;95546;;;;
2021/02/11 05:08:21;;;;;;;19.25;12.7;;;;;;;-8.7;100;95546;;;;
2021/02/11 05:09:30;;;;;;;19.25;12.7;;;;;;;-8.7;100;95546;;;;
2021/02/11 05:10:35;;;;;;;19.25;12.7;;;;;;;-8.7;100;95546;;;;
2021/02/11 05:11:42;;;;;;;19.25;12.7;;;;;;;-8.7;100;95546;;;;
2021/02/11 05:12:48;;;;;;;18.05;12.55;;;;;;;-8.83;100;95560.47;;;;
2021/02/11 05:13:51;;;;;;;18.05;12.55;;;;;;;-8.83;100;95560.47;;;;
2021/02/11 05:14:53;;;;;;;18.05;12.55;;;;;;;-8.83;100;95560.47;;;;
2021/02/11 05:15:56;;;;;;;18.05;12.55;;;;;;;-8.83;100;95560.47;;;;
2021/02/11 05:16:58;;;;;;;18.05;12.55;;;;;;;-8.83;100;95560.47;;;;
2021/02/11 05:18:11;;;;;;;18.05;12.55;;;;;;;-8.83;100;95560.47;;;;
2021/02/11 05:19:22;;;;;;;18.05;12.55;;;;;;;-8.83;100;95560.47;;;;
2021/02/11 05:20:32;;;;;;;18.05;12.55;;;;;;;-8.83;100;95560.47;;;;
2021/02/11 05:21:43;;;;;;;18.05;12.55;;;;;;;-8.83;100;95560.47;;;;
2021/02/11 05:23:02;;;;;;;18.95;13;;;;;;;-8.86;100;95578.59;;;;
2021/02/11 05:24:13;;;;;;;18.95;13;;;;;;;-8.86;100;95578.59;;;;
2021/02/11 05:25:18;;;;;;;18.95;13;;;;;;;-8.86;100;95578.59;;;;
2021/02/11 05:26:28;;;;;;;18.95;13;;;;;;;-8.86;100;95578.59;;;;
2021/02/11 05:27:33;;;;;;;18.95;13;;;;;;;-8.86;100;95578.59;;;;
2021/02/11 05:28:41;;;;;;;18.95;13;;;;;;;-8.86;100;95578.59;;;;
2021/02/11 05:29:47;;;;;;;18.95;13;;;;;;;-8.86;100;95578.59;;;;
2021/02/11 05:30:52;;;;;;;18.95;13;;;;;;;-8.86;100;95578.59;;;;
2021/02/11 05:31:58;;;;;;;18.95;13;;;;;;;-8.86;100;95578.59;;;;
2021/02/11 05:33:09;;;;;;;17.95;12.45;;;;;;;-8.96;100;95590.67;;;;
2021/02/11 05:34:15;;;;;;;17.95;12.45;;;;;;;-8.96;100;95590.67;;;;
2021/02/11 05:35:20;;;;;;;17.95;12.45;;;;;;;-8.96;100;95590.67;;;;
2021/02/11 05:36:27;;;;;;;17.95;12.45;;;;;;;-8.96;100;95590.67;;;;
2021/02/11 05:37:31;;;;;;;17.95;12.45;;;;;;;-8.96;100;95590.67;;;;
2021/02/11 05:38:33;;;;;;;17.95;12.45;;;;;;;-8.96;100;95590.67;;;;
2021/02/11 05:39:40;;;;;;;17.95;12.45;;;;;;;-8.96;100;95590.67;;;;
2021/02/11 05:40:44;;;;;;;17.95;12.45;;;;;;;-8.96;100;95590.67;;;;
2021/02/11 05:41:47;;;;;;;17.95;12.45;;;;;;;-8.96;100;95590.67;;;;
2021/02/11 05:42:51;;;;;;;17.95;12.45;;;;;;;-8.96;100;95590.67;;;;
2021/02/11 05:43:54;;;;;;;18.05;12.45;;;;;;;-8.92;100;95606.52;;;;
2021/02/11 05:45:02;;;;;;;18.05;12.45;;;;;;;-8.92;100;95606.52;;;;
2021/02/11 05:46:06;;;;;;;18.05;12.45;;;;;;;-8.92;100;95606.52;;;;
2021/02/11 05:47:12;;;;;;;18.05;12.45;;;;;;;-8.92;100;95606.52;;;;
2021/02/11 05:48:23;;;;;;;18.05;12.45;;;;;;;-8.92;100;95606.52;;;;
2021/02/11 05:49:29;;;;;;;18.05;12.45;;;;;;;-8.92;100;95606.52;;;;
2021/02/11 05:50:38;;;;;;;18.05;12.45;;;;;;;-8.92;100;95606.52;;;;
2021/02/11 05:51:45;;;;;;;18.05;12.45;;;;;;;-8.92;100;95606.52;;;;
2021/02/11 05:53:00;;;;;;;18.05;12.45;;;;;;;-8.92;100;95606.52;;;;
2021/02/11 05:54:07;;;;;;;18.05;12.45;;;;;;;-8.92;100;95606.52;;;;
2021/02/11 05:55:18;;;;;;;19;12.7;;;;;;;-8.88;100;95627.13;;;;
2021/02/11 05:56:25;;;;;;;19;12.7;;;;;;;-8.88;100;95627.13;;;;
2021/02/11 05:57:30;;;;;;;19;12.7;;;;;;;-8.88;100;95627.13;;;;
2021/02/11 05:58:35;;;;;;;19;12.7;;;;;;;-8.88;100;95627.13;;;;
2021/02/11 05:59:45;;;;;;;19;12.7;;;;;;;-8.88;100;95627.13;;;;
2021/02/11 06:00:47;;;;;;;19;12.7;;;;;;;-8.88;100;95627.13;;;;
2021/02/11 06:01:49;;;;;;;19;12.7;;;;;;;-8.88;100;95627.13;;;;
2021/02/11 06:02:58;;;;;;;19;12.7;;;;;;;-8.88;100;95627.13;;;;
2021/02/11 06:04:11;;;;;;;19;12.7;;;;;;;-8.88;100;95627.13;;;;
2021/02/11 06:05:21;;;;;;;17.45;12.15;;;;;;;-8.89;100;95649.44;;;;
2021/02/11 06:06:28;;;;;;;17.45;12.15;;;;;;;-8.89;100;95649.44;;;;
2021/02/11 06:07:39;;;;;;;17.45;12.15;;;;;;;-8.89;100;95649.44;;;;
2021/02/11 06:08:48;;;;;;;17.45;12.15;;;;;;;-8.89;100;95649.44;;;;
2021/02/11 06:09:53;;;;;;;17.45;12.15;;;;;;;-8.89;100;95649.44;;;;
2021/02/11 06:10:59;;;;;;;17.45;12.15;;;;;;;-8.89;100;95649.44;;;;
2021/02/11 06:12:08;;;;;;;17.45;12.15;;;;;;;-8.89;100;95649.44;;;;
2021/02/11 06:13:12;;;;;;;17.45;12.15;;;;;;;-8.89;100;95649.44;;;;
2021/02/11 06:14:15;;;;;;;17.45;12.15;;;;;;;-8.89;100;95649.44;;;;
2021/02/11 06:15:20;;;;;;;17.45;12.15;;;;;;;-8.89;100;95649.44;;;;
2021/02/11 06:16:23;;;;;;;18.7;12.25;;;;;;;-8.86;100;95674.94;;;;
2021/02/11 06:17:26;;;;;;;18.7;12.25;;;;;;;-8.86;100;95674.94;;;;
2021/02/11 06:18:33;;;;;;;18.7;12.25;;;;;;;-8.86;100;95674.94;;;;
2021/02/11 06:19:36;;;;;;;18.7;12.25;;;;;;;-8.86;100;95674.94;;;;
2021/02/11 06:20:39;;;;;;;18.7;12.25;;;;;;;-8.86;100;95674.94;;;;